PWSweather.com
Personal Weather Stations
Station Observations
SIKIA
Sykia CorinthGR 20400

Sykia CorinthGR 20400

Lat: 38.06, Lon: 22.6653

Elevation: 20

Station Type: DAVIS Vantage PRO 2 Wireless

http://sykiaweather.alinos.eu

Latest ConditionsUpdated 7:42:54 PM GMT+02:02 Tuesday, Jan 22, 2019
Currently Today's Max Today's Min Today's Average
Temperature 53.1°F11.7°C 62.8°F17.1°C 46.0°F7.8°C 53.5°F11.9°C
Dew Point 46.8°F8.2°C 48.0°F8.9°C 38.7°F3.7°C 43.0°F6.1°C
Winds Calm Calm 12.1 mph -19.5 kmh - - 3.7 mph 6.0 kmh
Wind Gusts 2.0 mph3.2 kmh 21.0 mph33.8 kmh - -
Humidity 79% 79% 52% 68%
Pressure 29.77 in1008.1 mb 29.97 in1014.9 mb 29.76 in1007.8 mb -
Precipitation - 0.01 in0.3 mm - -
Hour Temp Dew Point Humidity Winds Wind Gusts Pressure Precip Precip Rate Daily Precip Total
07:42 PM 53.1°F11.7°C 46.8°F8.2°C 79% Calm Calm 2.0 mph3.2 kmh 29.77 in1008.1 mb 0.01 in0.3 mm 0.00 in0.0 mm 0.01 in0.3 mm
07:37 PM 53.2°F11.8°C 46.9°F8.3°C 79% Calm Calm 0.9 mph1.4 kmh 29.77 in1008.1 mb 0.01 in0.3 mm 0.00 in0.0 mm 0.01 in0.3 mm
07:32 PM 53.4°F11.9°C 46.8°F8.2°C 78% 0.9 mph SSW1.4 kmh SSW 2.0 mph3.2 kmh 29.77 in1008.1 mb 0.01 in0.3 mm 0.00 in0.0 mm 0.01 in0.3 mm
07:27 PM 53.4°F11.9°C 46.8°F8.2°C 78% 2.9 mph SSW4.7 kmh SSW 4.9 mph7.9 kmh 29.78 in1008.5 mb 0.01 in0.3 mm 0.00 in0.0 mm 0.01 in0.3 mm
07:22 PM 53.4°F11.9°C 46.8°F8.2°C 78% 4.0 mph SSW6.4 kmh SSW 6.9 mph11.1 kmh 29.77 in1008.1 mb 0.01 in0.3 mm 0.00 in0.0 mm 0.01 in0.3 mm
07:17 PM 53.6°F12.0°C 46.6°F8.1°C 77% 4.0 mph SSW6.4 kmh SSW 6.0 mph9.7 kmh 29.78 in1008.5 mb 0.01 in0.3 mm 0.00 in0.0 mm 0.01 in0.3 mm
07:12 PM 53.8°F12.1°C 46.8°F8.2°C 77% 4.9 mph SSW7.9 kmh SSW 8.1 mph13.0 kmh 29.78 in1008.5 mb 0.01 in0.3 mm 0.00 in0.0 mm 0.01 in0.3 mm
07:07 PM 54.0°F12.2°C 46.6°F8.1°C 76% 4.9 mph SSW7.9 kmh SSW 10.0 mph16.1 kmh 29.78 in1008.5 mb 0.01 in0.3 mm 0.12 in3.0 mm 0.01 in0.3 mm
07:02 PM 54.1°F12.3°C 46.4°F8.0°C 75% 4.0 mph S6.4 kmh S 8.1 mph13.0 kmh 29.77 in1008.1 mb 0.00 in0.0 mm 0.00 in0.0 mm 0.00 in0.0 mm
06:57 PM 54.3°F12.4°C 46.2°F7.9°C 74% 4.0 mph SSW6.4 kmh SSW 8.1 mph13.0 kmh 29.77 in1008.1 mb 0.00 in0.0 mm 0.00 in0.0 mm 0.00 in0.0 mm
06:52 PM 54.9°F12.7°C 46.4°F8.0°C 73% 4.9 mph SSW7.9 kmh SSW 8.9 mph14.3 kmh 29.77 in1008.1 mb 0.00 in0.0 mm 0.00 in0.0 mm 0.00 in0.0 mm
06:47 PM 55.2°F12.9°C 46.4°F8.0°C 72% 4.9 mph S7.9 kmh S 10.1 mph16.3 kmh 29.78 in1008.5 mb 0.00 in0.0 mm 0.00 in0.0 mm 0.00 in0.0 mm
06:42 PM 55.6°F13.1°C 46.0°F7.8°C 70% 6.0 mph SSW9.7 kmh SSW 8.1 mph13.0 kmh 29.77 in1008.1 mb 0.00 in0.0 mm 0.00 in0.0 mm 0.00 in0.0 mm
06:37 PM 55.6°F13.1°C 45.5°F7.5°C 69% 6.9 mph S11.1 kmh S 12.1 mph19.5 kmh 29.77 in1008.1 mb 0.00 in0.0 mm 0.00 in0.0 mm 0.00 in0.0 mm
06:32 PM 55.6°F13.1°C 45.5°F7.5°C 69% 6.9 mph SSW11.1 kmh SSW 11.0 mph17.7 kmh 29.77 in1008.1 mb 0.00 in0.0 mm 0.00 in0.0 mm 0.00 in0.0 mm
06:27 PM 55.6°F13.1°C 45.5°F7.5°C 69% 6.0 mph S9.7 kmh S 12.1 mph19.5 kmh 29.76 in1007.8 mb 0.00 in0.0 mm 0.00 in0.0 mm 0.00 in0.0 mm
06:22 PM 55.8°F13.2°C 45.3°F7.4°C 68% 4.9 mph SSW7.9 kmh SSW 15.0 mph24.1 kmh 29.77 in1008.1 mb 0.00 in0.0 mm 0.00 in0.0 mm 0.00 in0.0 mm
06:17 PM 55.9°F13.3°C 45.1°F7.3°C 67% 4.9 mph S7.9 kmh S 10.1 mph16.3 kmh 29.76 in1007.8 mb 0.00 in0.0 mm 0.00 in0.0 mm 0.00 in0.0 mm
06:12 PM 55.9°F13.3°C 45.1°F7.3°C 67% 6.0 mph S9.7 kmh S 11.0 mph17.7 kmh 29.76 in1007.8 mb 0.00 in0.0 mm 0.00 in0.0 mm 0.00 in0.0 mm
06:07 PM 56.1°F13.4°C 45.0°F7.2°C 66% 6.0 mph SSW9.7 kmh SSW 11.0 mph17.7 kmh 29.76 in1007.8 mb 0.00 in0.0 mm 0.00 in0.0 mm 0.00 in0.0 mm
06:02 PM 56.1°F13.4°C 45.0°F7.2°C 66% 6.9 mph S11.1 kmh S 12.1 mph19.5 kmh 29.76 in1007.8 mb 0.00 in0.0 mm 0.00 in0.0 mm 0.00 in0.0 mm
05:57 PM 55.9°F13.3°C 44.8°F7.1°C 66% 6.9 mph S11.1 kmh S 13.0 mph20.9 kmh 29.76 in1007.8 mb 0.00 in0.0 mm 0.00 in0.0 mm 0.00 in0.0 mm
05:52 PM 55.9°F13.3°C 44.4°F6.9°C 65% 6.9 mph SW11.1 kmh SW 11.0 mph17.7 kmh 29.76 in1007.8 mb 0.00 in0.0 mm 0.00 in0.0 mm 0.00 in0.0 mm
05:47 PM 55.9°F13.3°C 44.4°F6.9°C 65% 6.9 mph SSW11.1 kmh SSW 14.0 mph22.5 kmh 29.76 in1007.8 mb 0.00 in0.0 mm 0.00 in0.0 mm 0.00 in0.0 mm
05:42 PM 56.1°F13.4°C 44.1°F6.7°C 64% 6.9 mph S11.1 kmh S 13.0 mph20.9 kmh 29.76 in1007.8 mb 0.00 in0.0 mm 0.00 in0.0 mm 0.00 in0.0 mm
05:37 PM 56.1°F13.4°C 44.1°F6.7°C 64% 8.1 mph S13.0 kmh S 17.0 mph27.4 kmh 29.76 in1007.8 mb 0.00 in0.0 mm 0.00 in0.0 mm 0.00 in0.0 mm
05:32 PM 56.3°F13.5°C 44.2°F6.8°C 64% 8.1 mph SW13.0 kmh SW 17.0 mph27.4 kmh 29.76 in1007.8 mb 0.00 in0.0 mm 0.00 in0.0 mm 0.00 in0.0 mm
05:27 PM 56.3°F13.5°C 44.2°F6.8°C 64% 8.1 mph S13.0 kmh S 16.1 mph25.9 kmh 29.76 in1007.8 mb 0.00 in0.0 mm 0.00 in0.0 mm 0.00 in0.0 mm
05:22 PM 56.5°F13.6°C 44.1°F6.7°C 63% 8.9 mph SSW14.3 kmh SSW 13.0 mph20.9 kmh 29.76 in1007.8 mb 0.00 in0.0 mm 0.00 in0.0 mm 0.00 in0.0 mm
05:17 PM 56.7°F13.7°C 43.7°F6.5°C 62% 8.9 mph SSW14.3 kmh SSW 18.0 mph29.0 kmh 29.77 in1008.1 mb 0.00 in0.0 mm 0.00 in0.0 mm 0.00 in0.0 mm
05:12 PM 56.8°F13.8°C 43.5°F6.4°C 61% 8.9 mph SSW14.3 kmh SSW 15.0 mph24.1 kmh 29.77 in1008.1 mb 0.00 in0.0 mm 0.00 in0.0 mm 0.00 in0.0 mm
05:07 PM 56.8°F13.8°C 43.5°F6.4°C 61% 8.1 mph SSW13.0 kmh SSW 17.9 mph28.8 kmh 29.77 in1008.1 mb 0.00 in0.0 mm 0.00 in0.0 mm 0.00 in0.0 mm
05:02 PM 56.8°F13.8°C 43.5°F6.4°C 61% 6.9 mph SSW11.1 kmh SSW 15.0 mph24.1 kmh 29.77 in1008.1 mb 0.00 in0.0 mm 0.00 in0.0 mm 0.00 in0.0 mm
04:57 PM 56.7°F13.7°C 43.3°F6.3°C 61% 4.9 mph SSW7.9 kmh SSW 11.0 mph17.7 kmh 29.78 in1008.5 mb 0.00 in0.0 mm 0.00 in0.0 mm 0.00 in0.0 mm
04:52 PM 56.7°F13.7°C 43.3°F6.3°C 61% 2.9 mph SSW4.7 kmh SSW 8.1 mph13.0 kmh 29.77 in1008.1 mb 0.00 in0.0 mm 0.00 in0.0 mm 0.00 in0.0 mm
04:47 PM 56.8°F13.8°C 43.5°F6.4°C 61% 2.9 mph S4.7 kmh S 8.9 mph14.3 kmh 29.77 in1008.1 mb 0.00 in0.0 mm 0.00 in0.0 mm 0.00 in0.0 mm
04:42 PM 57.2°F14.0°C 43.9°F6.6°C 61% 4.9 mph SE7.9 kmh SE 10.1 mph16.3 kmh 29.77 in1008.1 mb 0.00 in0.0 mm 0.00 in0.0 mm 0.00 in0.0 mm
04:37 PM 57.6°F14.2°C 43.7°F6.5°C 60% 4.9 mph SSE7.9 kmh SSE 13.0 mph20.9 kmh 29.78 in1008.5 mb 0.00 in0.0 mm 0.00 in0.0 mm 0.00 in0.0 mm
04:32 PM 57.9°F14.4°C 44.1°F6.7°C 60% 4.0 mph S6.4 kmh S 8.9 mph14.3 kmh 29.78 in1008.5 mb 0.00 in0.0 mm 0.00 in0.0 mm 0.00 in0.0 mm
04:27 PM 58.5°F14.7°C 44.2°F6.8°C 59% 4.0 mph SE6.4 kmh SE 11.0 mph17.7 kmh 29.78 in1008.5 mb 0.00 in0.0 mm 0.00 in0.0 mm 0.00 in0.0 mm
04:22 PM 59.2°F15.1°C 44.4°F6.9°C 58% 4.9 mph SE7.9 kmh SE 10.1 mph16.3 kmh 29.78 in1008.5 mb 0.00 in0.0 mm 0.00 in0.0 mm 0.00 in0.0 mm
04:17 PM 59.5°F15.3°C 43.9°F6.6°C 56% 4.9 mph S7.9 kmh S 14.0 mph22.5 kmh 29.78 in1008.5 mb 0.00 in0.0 mm 0.00 in0.0 mm 0.00 in0.0 mm
04:12 PM 59.7°F15.4°C 44.1°F6.7°C 56% 6.0 mph SSE9.7 kmh SSE 12.1 mph19.5 kmh 29.78 in1008.5 mb 0.00 in0.0 mm 0.00 in0.0 mm 0.00 in0.0 mm
04:07 PM 60.1°F15.6°C 43.9°F6.6°C 55% 6.9 mph S11.1 kmh S 15.0 mph24.1 kmh 29.79 in1008.8 mb 0.00 in0.0 mm 0.00 in0.0 mm 0.00 in0.0 mm
04:02 PM 60.3°F15.7°C 44.1°F6.7°C 55% 8.1 mph SSE13.0 kmh SSE 15.0 mph24.1 kmh 29.79 in1008.8 mb 0.00 in0.0 mm 0.00 in0.0 mm 0.00 in0.0 mm
03:57 PM 60.6°F15.9°C 44.4°F6.9°C 55% 8.1 mph SE13.0 kmh SE 13.0 mph20.9 kmh 29.79 in1008.8 mb 0.00 in0.0 mm 0.00 in0.0 mm 0.00 in0.0 mm
03:52 PM 61.2°F16.2°C 44.8°F7.1°C 55% 6.0 mph SE9.7 kmh SE 14.1 mph22.7 kmh 29.79 in1008.8 mb 0.00 in0.0 mm 0.00 in0.0 mm 0.00 in0.0 mm
03:47 PM 61.5°F16.4°C 44.8°F7.1°C 54% 4.0 mph SSE6.4 kmh SSE 10.0 mph16.1 kmh 29.79 in1008.8 mb 0.00 in0.0 mm 0.00 in0.0 mm 0.00 in0.0 mm
03:42 PM 61.7°F16.5°C 45.0°F7.2°C 54% 4.9 mph SE7.9 kmh SE 8.9 mph14.3 kmh 29.79 in1008.8 mb 0.00 in0.0 mm 0.00 in0.0 mm 0.00 in0.0 mm
03:37 PM 61.7°F16.5°C 45.0°F7.2°C 54% 6.0 mph S9.7 kmh S 11.0 mph17.7 kmh 29.79 in1008.8 mb 0.00 in0.0 mm 0.00 in0.0 mm 0.00 in0.0 mm
03:32 PM 61.5°F16.4°C 44.2°F6.8°C 53% 6.9 mph S11.1 kmh S 14.1 mph22.7 kmh 29.80 in1009.1 mb 0.00 in0.0 mm 0.00 in0.0 mm 0.00 in0.0 mm
03:27 PM 61.9°F16.6°C 45.1°F7.3°C 54% 6.9 mph SSW11.1 kmh SSW 12.1 mph19.5 kmh 29.79 in1008.8 mb 0.00 in0.0 mm 0.00 in0.0 mm 0.00 in0.0 mm
03:22 PM 61.5°F16.4°C 44.8°F7.1°C 54% 6.9 mph S11.1 kmh S 16.1 mph25.9 kmh 29.79 in1008.8 mb 0.00 in0.0 mm 0.00 in0.0 mm 0.00 in0.0 mm
03:17 PM 61.5°F16.4°C 44.2°F6.8°C 53% 6.0 mph SSW9.7 kmh SSW 16.1 mph25.9 kmh 29.80 in1009.1 mb 0.00 in0.0 mm 0.00 in0.0 mm 0.00 in0.0 mm
03:12 PM 61.7°F16.5°C 44.4°F6.9°C 53% 4.9 mph SW7.9 kmh SW 12.1 mph19.5 kmh 29.80 in1009.1 mb 0.00 in0.0 mm 0.00 in0.0 mm 0.00 in0.0 mm
03:07 PM 61.5°F16.4°C 45.1°F7.3°C 55% 6.9 mph S11.1 kmh S 14.1 mph22.7 kmh 29.80 in1009.1 mb 0.00 in0.0 mm 0.00 in0.0 mm 0.00 in0.0 mm
03:02 PM 61.3°F16.3°C 44.1°F6.7°C 53% 6.9 mph S11.1 kmh S 15.0 mph24.1 kmh 29.80 in1009.1 mb 0.00 in0.0 mm 0.00 in0.0 mm 0.00 in0.0 mm
02:57 PM 61.5°F16.4°C 43.7°F6.5°C 52% 4.9 mph S7.9 kmh S 15.0 mph24.1 kmh 29.80 in1009.1 mb 0.00 in0.0 mm 0.00 in0.0 mm 0.00 in0.0 mm
02:52 PM 61.3°F16.3°C 45.0°F7.2°C 55% 4.9 mph S7.9 kmh S 11.0 mph17.7 kmh 29.80 in1009.1 mb 0.00 in0.0 mm 0.00 in0.0 mm 0.00 in0.0 mm
02:47 PM 61.2°F16.2°C 44.4°F6.9°C 54% 6.0 mph S9.7 kmh S 11.0 mph17.7 kmh 29.81 in1009.5 mb 0.00 in0.0 mm 0.00 in0.0 mm 0.00 in0.0 mm
02:42 PM 61.2°F16.2°C 44.8°F7.1°C 55% 6.0 mph S9.7 kmh S 12.1 mph19.5 kmh 29.81 in1009.5 mb 0.00 in0.0 mm 0.00 in0.0 mm 0.00 in0.0 mm
02:37 PM 61.2°F16.2°C 44.8°F7.1°C 55% 6.9 mph SE11.1 kmh SE 14.1 mph22.7 kmh 29.81 in1009.5 mb 0.00 in0.0 mm 0.00 in0.0 mm 0.00 in0.0 mm
02:32 PM 61.2°F16.2°C 44.8°F7.1°C 55% 8.1 mph S13.0 kmh S 14.1 mph22.7 kmh 29.81 in1009.5 mb 0.00 in0.0 mm 0.00 in0.0 mm 0.00 in0.0 mm
02:27 PM 61.7°F16.5°C 44.4°F6.9°C 53% 8.1 mph SSW13.0 kmh SSW 21.0 mph33.8 kmh 29.81 in1009.5 mb 0.00 in0.0 mm 0.00 in0.0 mm 0.00 in0.0 mm
02:22 PM 62.1°F16.7°C 44.8°F7.1°C 53% 8.1 mph SSW13.0 kmh SSW 19.0 mph30.6 kmh 29.81 in1009.5 mb 0.00 in0.0 mm 0.00 in0.0 mm 0.00 in0.0 mm
02:17 PM 62.1°F16.7°C 44.2°F6.8°C 52% 8.1 mph S13.0 kmh S 21.0 mph33.8 kmh 29.81 in1009.5 mb 0.00 in0.0 mm 0.00 in0.0 mm 0.00 in0.0 mm
02:12 PM 62.4°F16.9°C 45.1°F7.3°C 53% 6.0 mph S9.7 kmh S 15.0 mph24.1 kmh 29.82 in1009.8 mb 0.00 in0.0 mm 0.00 in0.0 mm 0.00 in0.0 mm
02:07 PM 62.8°F17.1°C 45.3°F7.4°C 53% 6.0 mph SSE9.7 kmh SSE 13.0 mph20.9 kmh 29.82 in1009.8 mb 0.00 in0.0 mm 0.00 in0.0 mm 0.00 in0.0 mm
02:02 PM 62.8°F17.1°C 45.3°F7.4°C 53% 6.0 mph S9.7 kmh S 16.1 mph25.9 kmh 29.82 in1009.8 mb 0.00 in0.0 mm 0.00 in0.0 mm 0.00 in0.0 mm
01:57 PM 62.8°F17.1°C 45.3°F7.4°C 53% 6.0 mph SW9.7 kmh SW 15.0 mph24.1 kmh 29.83 in1010.2 mb 0.00 in0.0 mm 0.00 in0.0 mm 0.00 in0.0 mm
01:52 PM 62.8°F17.1°C 45.3°F7.4°C 53% 6.0 mph S9.7 kmh S 11.0 mph17.7 kmh 29.83 in1010.2 mb 0.00 in0.0 mm 0.00 in0.0 mm 0.00 in0.0 mm
01:47 PM 62.4°F16.9°C 45.1°F7.3°C 53% 4.9 mph SW7.9 kmh SW 13.0 mph20.9 kmh 29.83 in1010.2 mb 0.00 in0.0 mm 0.00 in0.0 mm 0.00 in0.0 mm
01:42 PM 61.9°F16.6°C 45.1°F7.3°C 54% 6.0 mph SSW9.7 kmh SSW 14.1 mph22.7 kmh 29.84 in1010.5 mb 0.00 in0.0 mm 0.00 in0.0 mm 0.00 in0.0 mm
01:37 PM 61.0°F16.1°C 44.8°F7.1°C 55% 6.0 mph S9.7 kmh S 15.0 mph24.1 kmh 29.85 in1010.8 mb 0.00 in0.0 mm 0.00 in0.0 mm 0.00 in0.0 mm
01:32 PM 60.6°F15.9°C 43.9°F6.6°C 54% 4.9 mph S7.9 kmh S 14.1 mph22.7 kmh 29.85 in1010.8 mb 0.00 in0.0 mm 0.00 in0.0 mm 0.00 in0.0 mm
01:27 PM 60.6°F15.9°C 44.4°F6.9°C 55% 4.0 mph S6.4 kmh S 13.0 mph20.9 kmh 29.85 in1010.8 mb 0.00 in0.0 mm 0.00 in0.0 mm 0.00 in0.0 mm
01:22 PM 60.4°F15.8°C 44.2°F6.8°C 55% 4.0 mph S6.4 kmh S 8.9 mph14.3 kmh 29.85 in1010.8 mb 0.00 in0.0 mm 0.00 in0.0 mm 0.00 in0.0 mm
01:17 PM 60.4°F15.8°C 43.7°F6.5°C 54% 4.9 mph S7.9 kmh S 12.1 mph19.5 kmh 29.85 in1010.8 mb 0.00 in0.0 mm 0.00 in0.0 mm 0.00 in0.0 mm
01:12 PM 60.6°F15.9°C 43.9°F6.6°C 54% 6.0 mph SSE9.7 kmh SSE 12.1 mph19.5 kmh 29.85 in1010.8 mb 0.00 in0.0 mm 0.00 in0.0 mm 0.00 in0.0 mm
01:07 PM 61.3°F16.3°C 44.1°F6.7°C 53% 6.0 mph SE9.7 kmh SE 15.0 mph24.1 kmh 29.85 in1010.8 mb 0.00 in0.0 mm 0.00 in0.0 mm 0.00 in0.0 mm
01:02 PM 62.2°F16.8°C 45.0°F7.2°C 53% 6.0 mph SSW9.7 kmh SSW 19.0 mph30.6 kmh 29.85 in1010.8 mb 0.00 in0.0 mm 0.00 in0.0 mm 0.00 in0.0 mm
12:57 PM 62.4°F16.9°C 44.6°F7.0°C 52% 6.0 mph S9.7 kmh S 12.1 mph19.5 kmh 29.86 in1011.2 mb 0.00 in0.0 mm 0.00 in0.0 mm 0.00 in0.0 mm
12:52 PM 61.9°F16.6°C 44.1°F6.7°C 52% 4.9 mph SSE7.9 kmh SSE 12.1 mph19.5 kmh 29.86 in1011.2 mb 0.00 in0.0 mm 0.00 in0.0 mm 0.00 in0.0 mm
12:47 PM 61.3°F16.3°C 44.6°F7.0°C 54% 4.9 mph SSE7.9 kmh SSE 11.0 mph17.7 kmh 29.87 in1011.5 mb 0.00 in0.0 mm 0.00 in0.0 mm 0.00 in0.0 mm
12:42 PM 61.0°F16.1°C 45.1°F7.3°C 56% 4.9 mph S7.9 kmh S 10.1 mph16.3 kmh 29.87 in1011.5 mb 0.00 in0.0 mm 0.00 in0.0 mm 0.00 in0.0 mm
12:37 PM 61.0°F16.1°C 44.8°F7.1°C 55% 4.9 mph S7.9 kmh S 12.1 mph19.5 kmh 29.88 in1011.9 mb 0.00 in0.0 mm 0.00 in0.0 mm 0.00 in0.0 mm
12:32 PM 61.3°F16.3°C 45.0°F7.2°C 55% 4.9 mph SE7.9 kmh SE 10.1 mph16.3 kmh 29.88 in1011.9 mb 0.00 in0.0 mm 0.00 in0.0 mm 0.00 in0.0 mm
12:27 PM 61.3°F16.3°C 45.5°F7.5°C 56% 4.9 mph SSE7.9 kmh SSE 12.1 mph19.5 kmh 29.88 in1011.9 mb 0.00 in0.0 mm 0.00 in0.0 mm 0.00 in0.0 mm
12:22 PM 61.3°F16.3°C 45.5°F7.5°C 56% 4.9 mph SSE7.9 kmh SSE 10.1 mph16.3 kmh 29.88 in1011.9 mb 0.00 in0.0 mm 0.00 in0.0 mm 0.00 in0.0 mm
12:17 PM 61.2°F16.2°C 45.3°F7.4°C 56% 4.9 mph SE7.9 kmh SE 13.0 mph20.9 kmh 29.88 in1011.9 mb 0.00 in0.0 mm 0.00 in0.0 mm 0.00 in0.0 mm
12:12 PM 61.2°F16.2°C 45.9°F7.7°C 57% 4.0 mph SE6.4 kmh SE 11.0 mph17.7 kmh 29.89 in1012.2 mb 0.00 in0.0 mm 0.00 in0.0 mm 0.00 in0.0 mm
12:07 PM 60.8°F16.0°C 46.4°F8.0°C 59% 4.0 mph SE6.4 kmh SE 8.1 mph13.0 kmh 29.89 in1012.2 mb 0.00 in0.0 mm 0.00 in0.0 mm 0.00 in0.0 mm
12:02 PM 60.3°F15.7°C 45.5°F7.5°C 58% 6.0 mph SSE9.7 kmh SSE 11.0 mph17.7 kmh 29.89 in1012.2 mb 0.00 in0.0 mm 0.00 in0.0 mm 0.00 in0.0 mm
11:57 AM 60.4°F15.8°C 47.8°F8.8°C 63% 6.0 mph SE9.7 kmh SE 12.1 mph19.5 kmh 29.89 in1012.2 mb 0.00 in0.0 mm 0.00 in0.0 mm 0.00 in0.0 mm
11:52 AM 60.4°F15.8°C 46.4°F8.0°C 60% 4.9 mph SE7.9 kmh SE 11.0 mph17.7 kmh 29.89 in1012.2 mb 0.00 in0.0 mm 0.00 in0.0 mm 0.00 in0.0 mm
11:47 AM 59.5°F15.3°C 46.9°F8.3°C 63% 4.9 mph SE7.9 kmh SE 12.1 mph19.5 kmh 29.90 in1012.5 mb 0.00 in0.0 mm 0.00 in0.0 mm 0.00 in0.0 mm
11:42 AM 58.5°F14.7°C 47.1°F8.4°C 66% 8.1 mph SSW13.0 kmh SSW 12.1 mph19.5 kmh 29.90 in1012.5 mb 0.00 in0.0 mm 0.00 in0.0 mm 0.00 in0.0 mm
11:37 AM 58.1°F14.5°C 48.0°F8.9°C 69% 11.0 mph SE17.7 kmh SE 16.1 mph25.9 kmh 29.90 in1012.5 mb 0.00 in0.0 mm 0.00 in0.0 mm 0.00 in0.0 mm
11:32 AM 57.9°F14.4°C 47.8°F8.8°C 69% 11.0 mph SE17.7 kmh SE 16.1 mph25.9 kmh 29.90 in1012.5 mb 0.00 in0.0 mm 0.00 in0.0 mm 0.00 in0.0 mm
11:27 AM 58.1°F14.5°C 47.7°F8.7°C 68% 12.1 mph SE19.5 kmh SE 18.0 mph29.0 kmh 29.90 in1012.5 mb 0.00 in0.0 mm 0.00 in0.0 mm 0.00 in0.0 mm
11:22 AM 58.3°F14.6°C 47.8°F8.8°C 68% 10.1 mph ESE16.3 kmh ESE 16.1 mph25.9 kmh 29.90 in1012.5 mb 0.00 in0.0 mm 0.00 in0.0 mm 0.00 in0.0 mm
11:17 AM 58.3°F14.6°C 47.8°F8.8°C 68% 8.1 mph SE13.0 kmh SE 16.1 mph25.9 kmh 29.91 in1012.9 mb 0.00 in0.0 mm 0.00 in0.0 mm 0.00 in0.0 mm
11:12 AM 57.9°F14.4°C 46.6°F8.1°C 66% 8.1 mph SE13.0 kmh SE 16.1 mph25.9 kmh 29.91 in1012.9 mb 0.00 in0.0 mm 0.00 in0.0 mm 0.00 in0.0 mm
11:07 AM 57.6°F14.2°C 46.2°F7.9°C 66% 6.9 mph SE11.1 kmh SE 17.0 mph27.4 kmh 29.91 in1012.9 mb 0.00 in0.0 mm 0.00 in0.0 mm 0.00 in0.0 mm
11:02 AM 57.0°F13.9°C 46.2°F7.9°C 67% 6.9 mph ESE11.1 kmh ESE 12.1 mph19.5 kmh 29.91 in1012.9 mb 0.00 in0.0 mm 0.00 in0.0 mm 0.00 in0.0 mm
10:57 AM 57.4°F14.1°C 46.6°F8.1°C 67% 6.0 mph SE9.7 kmh SE 13.0 mph20.9 kmh 29.91 in1012.9 mb 0.00 in0.0 mm 0.00 in0.0 mm 0.00 in0.0 mm
10:52 AM 57.9°F14.4°C 46.6°F8.1°C 66% 2.9 mph S4.7 kmh S 11.0 mph17.7 kmh 29.91 in1012.9 mb 0.00 in0.0 mm 0.00 in0.0 mm 0.00 in0.0 mm
10:47 AM 57.7°F14.3°C 46.4°F8.0°C 66% 2.9 mph ESE4.7 kmh ESE 6.9 mph11.1 kmh 29.92 in1013.2 mb 0.00 in0.0 mm 0.00 in0.0 mm 0.00 in0.0 mm
10:42 AM 57.2°F14.0°C 47.5°F8.6°C 70% 2.9 mph SSW4.7 kmh SSW 8.9 mph14.3 kmh 29.92 in1013.2 mb 0.00 in0.0 mm 0.00 in0.0 mm 0.00 in0.0 mm
10:37 AM 56.1°F13.4°C 46.0°F7.8°C 69% 2.0 mph S3.2 kmh S 6.9 mph11.1 kmh 29.92 in1013.2 mb 0.00 in0.0 mm 0.00 in0.0 mm 0.00 in0.0 mm
10:32 AM 55.2°F12.9°C 44.8°F7.1°C 68% 0.9 mph SSW1.4 kmh SSW 2.9 mph4.7 kmh 29.92 in1013.2 mb 0.00 in0.0 mm 0.00 in0.0 mm 0.00 in0.0 mm
10:27 AM 54.9°F12.7°C 44.1°F6.7°C 67% 0.9 mph SW1.4 kmh SW 2.9 mph4.7 kmh 29.92 in1013.2 mb 0.00 in0.0 mm 0.00 in0.0 mm 0.00 in0.0 mm
10:22 AM 54.5°F12.5°C 44.6°F7.0°C 69% 2.0 mph SW3.2 kmh SW 4.9 mph7.9 kmh 29.92 in1013.2 mb 0.00 in0.0 mm 0.00 in0.0 mm 0.00 in0.0 mm
10:17 AM 54.1°F12.3°C 43.9°F6.6°C 68% 0.9 mph WSW1.4 kmh WSW 2.9 mph4.7 kmh 29.92 in1013.2 mb 0.00 in0.0 mm 0.00 in0.0 mm 0.00 in0.0 mm
10:12 AM 54.0°F12.2°C 44.1°F6.7°C 69% 0.9 mph SW1.4 kmh SW 2.0 mph3.2 kmh 29.92 in1013.2 mb 0.00 in0.0 mm 0.00 in0.0 mm 0.00 in0.0 mm
10:07 AM 53.6°F12.0°C 43.7°F6.5°C 69% Calm Calm 0.9 mph1.4 kmh 29.93 in1013.5 mb 0.00 in0.0 mm 0.00 in0.0 mm 0.00 in0.0 mm
10:02 AM 53.2°F11.8°C 43.7°F6.5°C 70% 0.9 mph SW1.4 kmh SW 2.0 mph3.2 kmh 29.92 in1013.2 mb 0.00 in0.0 mm 0.00 in0.0 mm 0.00 in0.0 mm
09:57 AM 52.9°F11.6°C 44.1°F6.7°C 72% 0.9 mph SW1.4 kmh SW 2.0 mph3.2 kmh 29.92 in1013.2 mb 0.00 in0.0 mm 0.00 in0.0 mm 0.00 in0.0 mm
09:52 AM 52.2°F11.2°C 43.3°F6.3°C 72% 0.9 mph SW1.4 kmh SW 2.0 mph3.2 kmh 29.92 in1013.2 mb 0.00 in0.0 mm 0.00 in0.0 mm 0.00 in0.0 mm
09:47 AM 51.6°F10.9°C 43.3°F6.3°C 73% 0.9 mph SW1.4 kmh SW 2.0 mph3.2 kmh 29.92 in1013.2 mb 0.00 in0.0 mm 0.00 in0.0 mm 0.00 in0.0 mm
09:42 AM 51.3°F10.7°C 43.0°F6.1°C 73% 0.9 mph SW1.4 kmh SW 2.0 mph3.2 kmh 29.92 in1013.2 mb 0.00 in0.0 mm 0.00 in0.0 mm 0.00 in0.0 mm
09:37 AM 51.3°F10.7°C 43.0°F6.1°C 73% 0.9 mph SW1.4 kmh SW 2.0 mph3.2 kmh 29.92 in1013.2 mb 0.00 in0.0 mm 0.00 in0.0 mm 0.00 in0.0 mm
09:32 AM 51.1°F10.6°C 42.8°F6.0°C 73% 2.0 mph SW3.2 kmh SW 2.9 mph4.7 kmh 29.92 in1013.2 mb 0.00 in0.0 mm 0.00 in0.0 mm 0.00 in0.0 mm
09:27 AM 50.7°F10.4°C 42.4°F5.8°C 73% 2.0 mph SW3.2 kmh SW 2.9 mph4.7 kmh 29.92 in1013.2 mb 0.00 in0.0 mm 0.00 in0.0 mm 0.00 in0.0 mm
09:22 AM 50.7°F10.4°C 42.4°F5.8°C 73% 0.9 mph SW1.4 kmh SW 2.0 mph3.2 kmh 29.92 in1013.2 mb 0.00 in0.0 mm 0.00 in0.0 mm 0.00 in0.0 mm
09:17 AM 50.5°F10.3°C 42.3°F5.7°C 73% 0.9 mph SW1.4 kmh SW 2.9 mph4.7 kmh 29.92 in1013.2 mb 0.00 in0.0 mm 0.00 in0.0 mm 0.00 in0.0 mm
09:12 AM 50.5°F10.3°C 42.3°F5.7°C 73% 0.9 mph SW1.4 kmh SW 3.0 mph4.8 kmh 29.92 in1013.2 mb 0.00 in0.0 mm 0.00 in0.0 mm 0.00 in0.0 mm
09:07 AM 50.4°F10.2°C 42.4°F5.8°C 74% 0.9 mph SW1.4 kmh SW 2.0 mph3.2 kmh 29.92 in1013.2 mb 0.00 in0.0 mm 0.00 in0.0 mm 0.00 in0.0 mm
09:02 AM 50.2°F10.1°C 42.3°F5.7°C 74% 0.9 mph SW1.4 kmh SW 2.0 mph3.2 kmh 29.93 in1013.5 mb 0.00 in0.0 mm 0.00 in0.0 mm 0.00 in0.0 mm
08:57 AM 49.8°F9.9°C 42.3°F5.7°C 75% 0.9 mph SW1.4 kmh SW 2.0 mph3.2 kmh 29.92 in1013.2 mb 0.00 in0.0 mm 0.00 in0.0 mm 0.00 in0.0 mm
08:52 AM 49.5°F9.7°C 41.9°F5.5°C 75% 0.9 mph SW1.4 kmh SW 3.0 mph4.8 kmh 29.92 in1013.2 mb 0.00 in0.0 mm 0.00 in0.0 mm 0.00 in0.0 mm
08:47 AM 49.3°F9.6°C 41.7°F5.4°C 75% Calm Calm 2.0 mph3.2 kmh 29.92 in1013.2 mb 0.00 in0.0 mm 0.00 in0.0 mm 0.00 in0.0 mm
08:42 AM 48.9°F9.4°C 41.4°F5.2°C 75% 0.9 mph SW1.4 kmh SW 2.0 mph3.2 kmh 29.93 in1013.5 mb 0.00 in0.0 mm 0.00 in0.0 mm 0.00 in0.0 mm
08:37 AM 48.7°F9.3°C 41.2°F5.1°C 75% 0.9 mph SW1.4 kmh SW 3.0 mph4.8 kmh 29.92 in1013.2 mb 0.00 in0.0 mm 0.00 in0.0 mm 0.00 in0.0 mm
08:32 AM 48.7°F9.3°C 41.2°F5.1°C 75% 2.0 mph SW3.2 kmh SW 2.0 mph3.2 kmh 29.92 in1013.2 mb 0.00 in0.0 mm 0.00 in0.0 mm 0.00 in0.0 mm
08:27 AM 48.6°F9.2°C 41.0°F5.0°C 75% 0.9 mph SW1.4 kmh SW 2.9 mph4.7 kmh 29.91 in1012.9 mb 0.00 in0.0 mm 0.00 in0.0 mm 0.00 in0.0 mm
08:22 AM 48.6°F9.2°C 41.0°F5.0°C 75% 0.9 mph SW1.4 kmh SW 2.9 mph4.7 kmh 29.91 in1012.9 mb 0.00 in0.0 mm 0.00 in0.0 mm 0.00 in0.0 mm
08:17 AM 48.6°F9.2°C 41.0°F5.0°C 75% 0.9 mph SW1.4 kmh SW 2.0 mph3.2 kmh 29.91 in1012.9 mb 0.00 in0.0 mm 0.00 in0.0 mm 0.00 in0.0 mm
08:12 AM 48.6°F9.2°C 41.0°F5.0°C 75% 0.9 mph SW1.4 kmh SW 3.0 mph4.8 kmh 29.91 in1012.9 mb 0.00 in0.0 mm 0.00 in0.0 mm 0.00 in0.0 mm
08:07 AM 48.4°F9.1°C 40.8°F4.9°C 75% 0.9 mph SW1.4 kmh SW 3.0 mph4.8 kmh 29.92 in1013.2 mb 0.00 in0.0 mm 0.00 in0.0 mm 0.00 in0.0 mm
08:02 AM 48.0°F8.9°C 40.5°F4.7°C 75% 0.9 mph SW1.4 kmh SW 2.0 mph3.2 kmh 29.92 in1013.2 mb 0.00 in0.0 mm 0.00 in0.0 mm 0.00 in0.0 mm
07:57 AM 47.8°F8.8°C 40.3°F4.6°C 75% 0.9 mph SW1.4 kmh SW 2.9 mph4.7 kmh 29.92 in1013.2 mb 0.00 in0.0 mm 0.00 in0.0 mm 0.00 in0.0 mm
07:52 AM 47.8°F8.8°C 40.3°F4.6°C 75% 2.0 mph SW3.2 kmh SW 2.9 mph4.7 kmh 29.92 in1013.2 mb 0.00 in0.0 mm 0.00 in0.0 mm 0.00 in0.0 mm
07:47 AM 47.7°F8.7°C 40.1°F4.5°C 75% 2.0 mph SW3.2 kmh SW 2.9 mph4.7 kmh 29.91 in1012.9 mb 0.00 in0.0 mm 0.00 in0.0 mm 0.00 in0.0 mm
07:42 AM 47.7°F8.7°C 40.1°F4.5°C 75% 2.0 mph SSW3.2 kmh SSW 4.0 mph6.4 kmh 29.92 in1013.2 mb 0.00 in0.0 mm 0.00 in0.0 mm 0.00 in0.0 mm
07:37 AM 47.7°F8.7°C 40.1°F4.5°C 75% 2.0 mph SW3.2 kmh SW 2.9 mph4.7 kmh 29.92 in1013.2 mb 0.00 in0.0 mm 0.00 in0.0 mm 0.00 in0.0 mm
07:32 AM 47.7°F8.7°C 40.5°F4.7°C 76% 2.0 mph SW3.2 kmh SW 2.9 mph4.7 kmh 29.92 in1013.2 mb 0.00 in0.0 mm 0.00 in0.0 mm 0.00 in0.0 mm
07:27 AM 47.3°F8.5°C 40.1°F4.5°C 76% 2.0 mph SW3.2 kmh SW 2.9 mph4.7 kmh 29.92 in1013.2 mb 0.00 in0.0 mm 0.00 in0.0 mm 0.00 in0.0 mm
07:22 AM 47.1°F8.4°C 39.9°F4.4°C 76% 2.0 mph SW3.2 kmh SW 2.9 mph4.7 kmh 29.92 in1013.2 mb 0.00 in0.0 mm 0.00 in0.0 mm 0.00 in0.0 mm
07:17 AM 47.1°F8.4°C 39.9°F4.4°C 76% 2.0 mph SW3.2 kmh SW 2.9 mph4.7 kmh 29.92 in1013.2 mb 0.00 in0.0 mm 0.00 in0.0 mm 0.00 in0.0 mm
07:12 AM 46.9°F8.3°C 39.7°F4.3°C 76% 2.0 mph SW3.2 kmh SW 4.0 mph6.4 kmh 29.91 in1012.9 mb 0.00 in0.0 mm 0.00 in0.0 mm 0.00 in0.0 mm
07:07 AM 46.6°F8.1°C 39.4°F4.1°C 76% 2.0 mph SSW3.2 kmh SSW 4.0 mph6.4 kmh 29.92 in1013.2 mb 0.00 in0.0 mm 0.00 in0.0 mm 0.00 in0.0 mm
07:02 AM 46.2°F7.9°C 39.0°F3.9°C 76% 2.0 mph SSW3.2 kmh SSW 4.0 mph6.4 kmh 29.92 in1013.2 mb 0.00 in0.0 mm 0.00 in0.0 mm 0.00 in0.0 mm
06:57 AM 46.0°F7.8°C 38.8°F3.8°C 76% 2.0 mph SSW3.2 kmh SSW 4.0 mph6.4 kmh 29.91 in1012.9 mb 0.00 in0.0 mm 0.00 in0.0 mm 0.00 in0.0 mm
06:52 AM 46.2°F7.9°C 39.0°F3.9°C 76% 2.0 mph SW3.2 kmh SW 2.9 mph4.7 kmh 29.92 in1013.2 mb 0.00 in0.0 mm 0.00 in0.0 mm 0.00 in0.0 mm
06:47 AM 46.0°F7.8°C 38.8°F3.8°C 76% 2.0 mph SW3.2 kmh SW 2.9 mph4.7 kmh 29.92 in1013.2 mb 0.00 in0.0 mm 0.00 in0.0 mm 0.00 in0.0 mm
06:42 AM 46.2°F7.9°C 38.7°F3.7°C 75% 2.0 mph SW3.2 kmh SW 2.9 mph4.7 kmh 29.92 in1013.2 mb 0.00 in0.0 mm 0.00 in0.0 mm 0.00 in0.0 mm
06:37 AM 46.4°F8.0°C 38.8°F3.8°C 75% 2.0 mph SW3.2 kmh SW 2.9 mph4.7 kmh 29.92 in1013.2 mb 0.00 in0.0 mm 0.00 in0.0 mm 0.00 in0.0 mm
06:32 AM 46.4°F8.0°C 38.8°F3.8°C 75% 0.9 mph SW1.4 kmh SW 2.0 mph3.2 kmh 29.92 in1013.2 mb 0.00 in0.0 mm 0.00 in0.0 mm 0.00 in0.0 mm
06:27 AM 46.4°F8.0°C 38.8°F3.8°C 75% Calm Calm 2.0 mph3.2 kmh 29.92 in1013.2 mb 0.00 in0.0 mm 0.00 in0.0 mm 0.00 in0.0 mm
06:22 AM 46.4°F8.0°C 38.8°F3.8°C 75% Calm Calm -- 29.92 in1013.2 mb 0.00 in0.0 mm 0.00 in0.0 mm 0.00 in0.0 mm
06:17 AM 46.6°F8.1°C 38.7°F3.7°C 74% 0.9 mph SW1.4 kmh SW 2.0 mph3.2 kmh 29.92 in1013.2 mb 0.00 in0.0 mm 0.00 in0.0 mm 0.00 in0.0 mm
06:12 AM 46.8°F8.2°C 38.8°F3.8°C 74% 2.0 mph SW3.2 kmh SW 4.9 mph7.9 kmh 29.93 in1013.5 mb 0.00 in0.0 mm 0.00 in0.0 mm 0.00 in0.0 mm
06:07 AM 46.8°F8.2°C 39.2°F4.0°C 75% 2.0 mph S3.2 kmh S 4.9 mph7.9 kmh 29.92 in1013.2 mb 0.00 in0.0 mm 0.00 in0.0 mm 0.00 in0.0 mm
06:02 AM 46.8°F8.2°C 39.2°F4.0°C 75% 2.0 mph SSW3.2 kmh SSW 4.9 mph7.9 kmh 29.92 in1013.2 mb 0.00 in0.0 mm 0.00 in0.0 mm 0.00 in0.0 mm
05:57 AM 47.1°F8.4°C 39.2°F4.0°C 74% 2.0 mph SW3.2 kmh SW 4.0 mph6.4 kmh 29.92 in1013.2 mb 0.00 in0.0 mm 0.00 in0.0 mm 0.00 in0.0 mm
05:52 AM 47.7°F8.7°C 39.4°F4.1°C 73% 2.0 mph SSW3.2 kmh SSW 4.0 mph6.4 kmh 29.92 in1013.2 mb 0.00 in0.0 mm 0.00 in0.0 mm 0.00 in0.0 mm
05:47 AM 48.4°F9.1°C 39.7°F4.3°C 72% 2.0 mph SSW3.2 kmh SSW 4.0 mph6.4 kmh 29.92 in1013.2 mb 0.00 in0.0 mm 0.00 in0.0 mm 0.00 in0.0 mm
05:41 AM 49.1°F9.5°C 40.5°F4.7°C 72% 2.0 mph SW3.2 kmh SW 4.9 mph7.9 kmh 29.92 in1013.2 mb 0.00 in0.0 mm 0.00 in0.0 mm 0.00 in0.0 mm
05:36 AM 49.6°F9.8°C 41.4°F5.2°C 73% 2.9 mph SW4.7 kmh SW 4.9 mph7.9 kmh 29.92 in1013.2 mb 0.00 in0.0 mm 0.00 in0.0 mm 0.00 in0.0 mm
05:31 AM 49.8°F9.9°C 41.5°F5.3°C 73% 2.9 mph SSW4.7 kmh SSW 6.0 mph9.7 kmh 29.92 in1013.2 mb 0.00 in0.0 mm 0.00 in0.0 mm 0.00 in0.0 mm
05:26 AM 50.4°F10.2°C 42.1°F5.6°C 73% 2.0 mph SSW3.2 kmh SSW 4.9 mph7.9 kmh 29.92 in1013.2 mb 0.00 in0.0 mm 0.00 in0.0 mm 0.00 in0.0 mm
05:21 AM 50.2°F10.1°C 42.3°F5.7°C 74% 2.9 mph SSE4.7 kmh SSE 6.0 mph9.7 kmh 29.92 in1013.2 mb 0.00 in0.0 mm 0.00 in0.0 mm 0.00 in0.0 mm
05:16 AM 49.8°F9.9°C 42.3°F5.7°C 75% 2.9 mph SSE4.7 kmh SSE 8.1 mph13.0 kmh 29.92 in1013.2 mb 0.00 in0.0 mm 0.00 in0.0 mm 0.00 in0.0 mm
05:11 AM 49.3°F9.6°C 41.4°F5.2°C 74% 2.9 mph SSE4.7 kmh SSE 6.0 mph9.7 kmh 29.92 in1013.2 mb 0.00 in0.0 mm 0.00 in0.0 mm 0.00 in0.0 mm
05:06 AM 48.9°F9.4°C 40.6°F4.8°C 73% 2.9 mph S4.7 kmh S 4.0 mph6.4 kmh 29.92 in1013.2 mb 0.00 in0.0 mm 0.00 in0.0 mm 0.00 in0.0 mm
05:01 AM 48.9°F9.4°C 41.4°F5.2°C 75% 2.9 mph SSW4.7 kmh SSW 9.0 mph14.5 kmh 29.93 in1013.5 mb 0.00 in0.0 mm 0.00 in0.0 mm 0.00 in0.0 mm
04:56 AM 47.5°F8.6°C 40.6°F4.8°C 77% 4.0 mph S6.4 kmh S 6.0 mph9.7 kmh 29.93 in1013.5 mb 0.00 in0.0 mm 0.00 in0.0 mm 0.00 in0.0 mm
04:51 AM 46.9°F8.3°C 40.1°F4.5°C 77% 2.9 mph SSW4.7 kmh SSW 6.0 mph9.7 kmh 29.93 in1013.5 mb 0.00 in0.0 mm 0.00 in0.0 mm 0.00 in0.0 mm
04:46 AM 46.6°F8.1°C 40.1°F4.5°C 78% 2.9 mph SSW4.7 kmh SSW 4.9 mph7.9 kmh 29.93 in1013.5 mb 0.00 in0.0 mm 0.00 in0.0 mm 0.00 in0.0 mm
04:41 AM 46.0°F7.8°C 39.6°F4.2°C 78% 2.0 mph SSW3.2 kmh SSW 4.0 mph6.4 kmh 29.93 in1013.5 mb 0.00 in0.0 mm 0.00 in0.0 mm 0.00 in0.0 mm
04:36 AM 46.0°F7.8°C 39.2°F4.0°C 77% 2.0 mph SSW3.2 kmh SSW 5.0 mph8.0 kmh 29.93 in1013.5 mb 0.00 in0.0 mm 0.00 in0.0 mm 0.00 in0.0 mm
04:31 AM 46.0°F7.8°C 39.2°F4.0°C 77% 0.9 mph SW1.4 kmh SW 2.9 mph4.7 kmh 29.93 in1013.5 mb 0.00 in0.0 mm 0.00 in0.0 mm 0.00 in0.0 mm
04:26 AM 46.0°F7.8°C 39.2°F4.0°C 77% 0.9 mph SW1.4 kmh SW 2.9 mph4.7 kmh 29.93 in1013.5 mb 0.00 in0.0 mm 0.00 in0.0 mm 0.00 in0.0 mm
04:21 AM 46.2°F7.9°C 39.0°F3.9°C 76% 2.0 mph SW3.2 kmh SW 2.9 mph4.7 kmh 29.93 in1013.5 mb 0.00 in0.0 mm 0.00 in0.0 mm 0.00 in0.0 mm
04:16 AM 46.2°F7.9°C 39.0°F3.9°C 76% 2.0 mph SSW3.2 kmh SSW 4.9 mph7.9 kmh 29.93 in1013.5 mb 0.00 in0.0 mm 0.00 in0.0 mm 0.00 in0.0 mm
04:11 AM 46.4°F8.0°C 39.2°F4.0°C 76% 2.0 mph SSW3.2 kmh SSW 4.0 mph6.4 kmh 29.94 in1013.9 mb 0.00 in0.0 mm 0.00 in0.0 mm 0.00 in0.0 mm
04:06 AM 46.8°F8.2°C 39.6°F4.2°C 76% 0.9 mph SSW1.4 kmh SSW 4.0 mph6.4 kmh 29.94 in1013.9 mb 0.00 in0.0 mm 0.00 in0.0 mm 0.00 in0.0 mm
04:01 AM 46.9°F8.3°C 39.7°F4.3°C 76% 2.0 mph SSW3.2 kmh SSW 2.9 mph4.7 kmh 29.94 in1013.9 mb 0.00 in0.0 mm 0.00 in0.0 mm 0.00 in0.0 mm
03:56 AM 46.9°F8.3°C 39.7°F4.3°C 76% 2.0 mph SSW3.2 kmh SSW 4.0 mph6.4 kmh 29.94 in1013.9 mb 0.00 in0.0 mm 0.00 in0.0 mm 0.00 in0.0 mm
03:51 AM 46.8°F8.2°C 39.6°F4.2°C 76% 2.0 mph SW3.2 kmh SW 2.9 mph4.7 kmh 29.95 in1014.2 mb 0.00 in0.0 mm 0.00 in0.0 mm 0.00 in0.0 mm
03:46 AM 46.8°F8.2°C 39.6°F4.2°C 76% 2.0 mph SW3.2 kmh SW 4.9 mph7.9 kmh 29.94 in1013.9 mb 0.00 in0.0 mm 0.00 in0.0 mm 0.00 in0.0 mm
03:41 AM 46.6°F8.1°C 39.4°F4.1°C 76% 2.0 mph SW3.2 kmh SW 4.0 mph6.4 kmh 29.95 in1014.2 mb 0.00 in0.0 mm 0.00 in0.0 mm 0.00 in0.0 mm
03:36 AM 46.6°F8.1°C 39.4°F4.1°C 76% 2.0 mph SSW3.2 kmh SSW 4.0 mph6.4 kmh 29.95 in1014.2 mb 0.00 in0.0 mm 0.00 in0.0 mm 0.00 in0.0 mm
03:31 AM 46.8°F8.2°C 39.2°F4.0°C 75% 2.0 mph SSW3.2 kmh SSW 5.0 mph8.0 kmh 29.95 in1014.2 mb 0.00 in0.0 mm 0.00 in0.0 mm 0.00 in0.0 mm
03:26 AM 46.8°F8.2°C 39.2°F4.0°C 75% 2.0 mph SW3.2 kmh SW 2.9 mph4.7 kmh 29.95 in1014.2 mb 0.00 in0.0 mm 0.00 in0.0 mm 0.00 in0.0 mm
03:21 AM 46.9°F8.3°C 39.4°F4.1°C 75% 2.0 mph SW3.2 kmh SW 4.0 mph6.4 kmh 29.95 in1014.2 mb 0.00 in0.0 mm 0.00 in0.0 mm 0.00 in0.0 mm
03:16 AM 47.5°F8.6°C 39.6°F4.2°C 74% 2.0 mph S3.2 kmh S 5.0 mph8.0 kmh 29.96 in1014.6 mb 0.00 in0.0 mm 0.00 in0.0 mm 0.00 in0.0 mm
03:11 AM 47.8°F8.8°C 39.9°F4.4°C 74% 0.9 mph SSW1.4 kmh SSW 2.9 mph4.7 kmh 29.96 in1014.6 mb 0.00 in0.0 mm 0.00 in0.0 mm 0.00 in0.0 mm
03:06 AM 48.0°F8.9°C 40.1°F4.5°C 74% 0.9 mph SW1.4 kmh SW 2.9 mph4.7 kmh 29.96 in1014.6 mb 0.00 in0.0 mm 0.00 in0.0 mm 0.00 in0.0 mm
03:01 AM 48.0°F8.9°C 40.1°F4.5°C 74% 0.9 mph SW1.4 kmh SW 4.0 mph6.4 kmh 29.96 in1014.6 mb 0.00 in0.0 mm 0.00 in0.0 mm 0.00 in0.0 mm
02:56 AM 48.0°F8.9°C 40.1°F4.5°C 74% 0.9 mph SW1.4 kmh SW 2.0 mph3.2 kmh 29.96 in1014.6 mb 0.00 in0.0 mm 0.00 in0.0 mm 0.00 in0.0 mm
02:51 AM 48.0°F8.9°C 40.1°F4.5°C 74% 0.9 mph SW1.4 kmh SW 2.0 mph3.2 kmh 29.96 in1014.6 mb 0.00 in0.0 mm 0.00 in0.0 mm 0.00 in0.0 mm
02:46 AM 48.0°F8.9°C 40.1°F4.5°C 74% 0.9 mph SW1.4 kmh SW 2.0 mph3.2 kmh 29.96 in1014.6 mb 0.00 in0.0 mm 0.00 in0.0 mm 0.00 in0.0 mm
02:41 AM 48.2°F9.0°C 40.3°F4.6°C 74% 0.9 mph SW1.4 kmh SW 2.9 mph4.7 kmh 29.96 in1014.6 mb 0.00 in0.0 mm 0.00 in0.0 mm 0.00 in0.0 mm
02:36 AM 48.4°F9.1°C 40.5°F4.7°C 74% 2.0 mph S3.2 kmh S 2.9 mph4.7 kmh 29.96 in1014.6 mb 0.00 in0.0 mm 0.00 in0.0 mm 0.00 in0.0 mm
02:31 AM 48.4°F9.1°C 40.5°F4.7°C 74% 2.9 mph S4.7 kmh S 4.0 mph6.4 kmh 29.96 in1014.6 mb 0.00 in0.0 mm 0.00 in0.0 mm 0.00 in0.0 mm
02:26 AM 48.4°F9.1°C 40.5°F4.7°C 74% 2.9 mph SSW4.7 kmh SSW 4.0 mph6.4 kmh 29.96 in1014.6 mb 0.00 in0.0 mm 0.00 in0.0 mm 0.00 in0.0 mm
02:21 AM 48.4°F9.1°C 40.5°F4.7°C 74% 2.9 mph S4.7 kmh S 6.0 mph9.7 kmh 29.96 in1014.6 mb 0.00 in0.0 mm 0.00 in0.0 mm 0.00 in0.0 mm
02:16 AM 47.8°F8.8°C 40.3°F4.6°C 75% 2.9 mph S4.7 kmh S 5.0 mph8.0 kmh 29.96 in1014.6 mb 0.00 in0.0 mm 0.00 in0.0 mm 0.00 in0.0 mm
02:11 AM 47.8°F8.8°C 40.3°F4.6°C 75% 2.0 mph SSW3.2 kmh SSW 4.0 mph6.4 kmh 29.96 in1014.6 mb 0.00 in0.0 mm 0.00 in0.0 mm 0.00 in0.0 mm
02:06 AM 47.8°F8.8°C 40.3°F4.6°C 75% 2.9 mph SSW4.7 kmh SSW 4.0 mph6.4 kmh 29.96 in1014.6 mb 0.00 in0.0 mm 0.00 in0.0 mm 0.00 in0.0 mm
02:01 AM 48.0°F8.9°C 40.5°F4.7°C 75% 2.9 mph S4.7 kmh S 4.9 mph7.9 kmh 29.96 in1014.6 mb 0.00 in0.0 mm 0.00 in0.0 mm 0.00 in0.0 mm
01:56 AM 48.4°F9.1°C 40.8°F4.9°C 75% 2.9 mph SSW4.7 kmh SSW 4.9 mph7.9 kmh 29.96 in1014.6 mb 0.00 in0.0 mm 0.00 in0.0 mm 0.00 in0.0 mm
01:51 AM 48.6°F9.2°C 40.6°F4.8°C 74% 2.9 mph SSW4.7 kmh SSW 4.9 mph7.9 kmh 29.96 in1014.6 mb 0.00 in0.0 mm 0.00 in0.0 mm 0.00 in0.0 mm
01:46 AM 49.3°F9.6°C 41.4°F5.2°C 74% 2.9 mph SSW4.7 kmh SSW 4.9 mph7.9 kmh 29.96 in1014.6 mb 0.00 in0.0 mm 0.00 in0.0 mm 0.00 in0.0 mm
01:41 AM 49.8°F9.9°C 41.9°F5.5°C 74% 2.9 mph SSW4.7 kmh SSW 6.0 mph9.7 kmh 29.96 in1014.6 mb 0.00 in0.0 mm 0.00 in0.0 mm 0.00 in0.0 mm
01:36 AM 50.5°F10.3°C 43.0°F6.1°C 75% 2.9 mph SSW4.7 kmh SSW 6.0 mph9.7 kmh 29.96 in1014.6 mb 0.00 in0.0 mm 0.00 in0.0 mm 0.00 in0.0 mm
01:31 AM 50.7°F10.4°C 43.2°F6.2°C 75% 2.9 mph SSE4.7 kmh SSE 6.0 mph9.7 kmh 29.96 in1014.6 mb 0.00 in0.0 mm 0.00 in0.0 mm 0.00 in0.0 mm
01:26 AM 50.5°F10.3°C 43.0°F6.1°C 75% 2.9 mph S4.7 kmh S 4.9 mph7.9 kmh 29.97 in1014.9 mb 0.00 in0.0 mm 0.00 in0.0 mm 0.00 in0.0 mm
01:21 AM 50.7°F10.4°C 43.2°F6.2°C 75% 2.9 mph SSW4.7 kmh SSW 4.9 mph7.9 kmh 29.96 in1014.6 mb 0.00 in0.0 mm 0.00 in0.0 mm 0.00 in0.0 mm
01:16 AM 50.7°F10.4°C 43.2°F6.2°C 75% 4.0 mph SSW6.4 kmh SSW 6.0 mph9.7 kmh 29.96 in1014.6 mb 0.00 in0.0 mm 0.00 in0.0 mm 0.00 in0.0 mm
01:11 AM 50.7°F10.4°C 43.5°F6.4°C 76% 4.0 mph S6.4 kmh S 8.1 mph13.0 kmh 29.96 in1014.6 mb 0.00 in0.0 mm 0.00 in0.0 mm 0.00 in0.0 mm
01:06 AM 50.5°F10.3°C 43.3°F6.3°C 76% 4.0 mph S6.4 kmh S 8.9 mph14.3 kmh 29.96 in1014.6 mb 0.00 in0.0 mm 0.00 in0.0 mm 0.00 in0.0 mm
01:01 AM 50.4°F10.2°C 43.2°F6.2°C 76% 2.9 mph SSE4.7 kmh SSE 9.0 mph14.5 kmh 29.96 in1014.6 mb 0.00 in0.0 mm 0.00 in0.0 mm 0.00 in0.0 mm
12:56 AM 50.4°F10.2°C 42.8°F6.0°C 75% 2.9 mph SSE4.7 kmh SSE 6.0 mph9.7 kmh 29.97 in1014.9 mb 0.00 in0.0 mm 0.00 in0.0 mm 0.00 in0.0 mm
12:51 AM 50.7°F10.4°C 42.4°F5.8°C 73% 2.9 mph SSW4.7 kmh SSW 4.9 mph7.9 kmh 29.96 in1014.6 mb 0.00 in0.0 mm 0.00 in0.0 mm 0.00 in0.0 mm
12:46 AM 51.6°F10.9°C 43.0°F6.1°C 72% 2.0 mph SSW3.2 kmh SSW 4.9 mph7.9 kmh 29.97 in1014.9 mb 0.00 in0.0 mm 0.00 in0.0 mm 0.00 in0.0 mm
12:41 AM 52.3°F11.3°C 43.5°F6.4°C 72% 2.9 mph SSE4.7 kmh SSE 2.9 mph4.7 kmh 29.97 in1014.9 mb 0.00 in0.0 mm 0.00 in0.0 mm 0.00 in0.0 mm
12:36 AM 52.9°F11.6°C 44.4°F6.9°C 73% 2.9 mph SSE4.7 kmh SSE 8.1 mph13.0 kmh 29.97 in1014.9 mb 0.00 in0.0 mm 0.00 in0.0 mm 0.00 in0.0 mm
12:31 AM 53.1°F11.7°C 44.2°F6.8°C 72% 2.9 mph SSE4.7 kmh SSE 7.0 mph11.3 kmh 29.97 in1014.9 mb 0.00 in0.0 mm 0.00 in0.0 mm 0.00 in0.0 mm
12:26 AM 53.4°F11.9°C 44.6°F7.0°C 72% 4.0 mph SSE6.4 kmh SSE 6.9 mph11.1 kmh 29.97 in1014.9 mb 0.00 in0.0 mm 0.00 in0.0 mm 0.00 in0.0 mm
12:21 AM 53.8°F12.1°C 45.3°F7.4°C 73% 4.0 mph SE6.4 kmh SE 8.9 mph14.3 kmh 29.97 in1014.9 mb 0.00 in0.0 mm 0.00 in0.0 mm 0.00 in0.0 mm
12:16 AM 53.8°F12.1°C 45.3°F7.4°C 73% 4.0 mph SSE6.4 kmh SSE 10.1 mph16.3 kmh 29.97 in1014.9 mb 0.00 in0.0 mm 0.00 in0.0 mm 0.00 in0.0 mm
12:11 AM 53.6°F12.0°C 44.4°F6.9°C 71% 4.0 mph SE6.4 kmh SE 8.1 mph13.0 kmh 29.97 in1014.9 mb 0.00 in0.0 mm 0.00 in0.0 mm 0.00 in0.0 mm
12:06 AM 53.4°F11.9°C 44.2°F6.8°C 71% 2.9 mph S4.7 kmh S 8.1 mph13.0 kmh 29.97 in1014.9 mb 0.00 in0.0 mm 0.00 in0.0 mm 0.00 in0.0 mm
12:01 AM 53.6°F12.0°C 44.4°F6.9°C 71% 4.0 mph SE6.4 kmh SE 6.9 mph11.1 kmh 29.97 in1014.9 mb 0.00 in0.0 mm 0.00 in0.0 mm 0.00 in0.0 mm